createdAt,value
2022-09-27T00:00:31.900Z,98410.69
2022-09-27T00:03:00.139Z,98411.41
2022-09-27T00:05:28.359Z,98402.66
2022-09-27T00:07:57.749Z,98416.84
2022-09-27T00:10:26.054Z,98408.81
2022-09-27T00:12:54.500Z,98412.69
2022-09-27T00:15:23.070Z,98403.00
2022-09-27T00:17:52.219Z,98413.41
2022-09-27T00:20:21.676Z,98403.84
2022-09-27T00:22:50.204Z,98397.94
2022-09-27T00:25:19.851Z,98397.09
2022-09-27T00:27:47.866Z,98392.00
2022-09-27T00:30:15.941Z,98386.91
2022-09-27T00:32:43.912Z,98388.47
2022-09-27T00:35:11.798Z,98389.50
2022-09-27T00:37:39.669Z,98386.81
2022-09-27T00:40:09.132Z,98385.41
2022-09-27T00:42:38.405Z,98384.19
2022-09-27T00:45:13.886Z,98384.94
2022-09-27T00:47:50.953Z,98387.41
2022-09-27T00:50:27.349Z,98383.28
2022-09-27T00:53:04.136Z,98384.09
2022-09-27T00:55:36.675Z,98387.88
2022-09-27T00:58:08.140Z,98380.06
2022-09-27T01:00:41.034Z,98382.78
2022-09-27T01:03:13.703Z,98382.53
2022-09-27T01:05:42.521Z,98385.38
2022-09-27T01:08:10.416Z,98388.22
2022-09-27T01:10:47.418Z,98388.44
2022-09-27T01:13:23.602Z,98384.28
2022-09-27T01:15:59.391Z,98386.78
2022-09-27T01:18:36.615Z,98386.88
2022-09-27T01:21:34.358Z,98383.78
2022-09-27T01:24:26.638Z,98389.59
2022-09-27T01:27:19.994Z,98381.56
2022-09-27T01:30:04.454Z,98390.41
2022-09-27T01:32:39.101Z,98392.22
2022-09-27T01:35:16.590Z,98394.91
2022-09-27T01:37:55.550Z,98388.53
2022-09-27T01:40:31.391Z,98385.72
2022-09-27T01:43:44.014Z,98389.13
2022-09-27T01:46:17.107Z,98385.78
2022-09-27T01:49:12.740Z,98384.50
2022-09-27T01:51:45.108Z,98388.19
2022-09-27T01:54:18.367Z,98396.66
2022-09-27T01:57:08.300Z,98390.53
2022-09-27T01:59:45.510Z,98392.53
2022-09-27T02:02:37.617Z,98395.25
2022-09-27T02:05:31.146Z,98395.78
2022-09-27T02:08:14.868Z,98390.59
2022-09-27T02:10:46.216Z,98390.59
2022-09-27T02:13:22.419Z,98393.56
2022-09-27T02:16:03.702Z,98390.13
2022-09-27T02:18:52.913Z,98396.91
2022-09-27T02:21:24.801Z,98399.59
2022-09-27T02:23:58.522Z,98408.78
2022-09-27T02:26:33.374Z,98408.47
2022-09-27T02:29:08.274Z,98413.66
2022-09-27T02:31:44.743Z,98410.56
2022-09-27T02:34:17.506Z,98409.53
2022-09-27T02:36:48.424Z,98413.75
2022-09-27T02:39:18.435Z,98423.81
2022-09-27T02:41:47.197Z,98423.50
2022-09-27T02:44:17.781Z,98436.91
2022-09-27T02:47:03.645Z,98442.13
2022-09-27T02:49:45.255Z,98452.50
2022-09-27T02:52:50.042Z,98453.72
2022-09-27T02:55:25.462Z,98456.19
2022-09-27T02:58:26.255Z,98455.47
2022-09-27T03:01:22.481Z,98448.88
2022-09-27T03:04:18.810Z,98461.88
2022-09-27T03:06:48.535Z,98462.22
2022-09-27T03:09:21.571Z,98471.00
2022-09-27T03:11:49.728Z,98474.97
2022-09-27T03:14:18.424Z,98476.41
2022-09-27T03:16:57.604Z,98488.00
2022-09-27T03:20:00.678Z,98499.84
2022-09-27T03:22:48.491Z,98516.81
2022-09-27T03:25:17.921Z,98520.78
2022-09-27T03:27:46.240Z,98526.19
2022-09-27T03:30:16.030Z,98527.72
2022-09-27T03:32:45.377Z,98538.53
2022-09-27T03:35:32.181Z,98536.16
2022-09-27T03:38:01.000Z,98539.06
2022-09-27T03:40:30.800Z,98542.88
2022-09-27T03:42:58.872Z,98549.75
2022-09-27T03:45:27.809Z,98564.00
2022-09-27T03:47:58.313Z,98559.44
2022-09-27T03:50:26.675Z,98568.47
2022-09-27T03:52:54.665Z,98563.78
2022-09-27T03:55:23.637Z,98575.03
2022-09-27T03:57:53.465Z,98583.91
2022-09-27T04:00:25.330Z,98579.38
2022-09-27T04:02:53.563Z,98579.78
2022-09-27T04:05:24.993Z,98581.75
2022-09-27T04:07:57.763Z,98590.00
2022-09-27T04:10:26.341Z,98585.72
2022-09-27T04:12:55.774Z,98586.75
2022-09-27T04:15:25.689Z,98588.44
2022-09-27T04:17:53.521Z,98595.06
2022-09-27T04:20:35.422Z,98603.78
2022-09-27T04:23:08.171Z,98593.63
2022-09-27T04:25:39.758Z,98597.59
2022-09-27T04:28:32.239Z,98598.44
2022-09-27T04:31:00.618Z,98601.44
2022-09-27T04:34:00.467Z,98615.38
2022-09-27T04:36:33.007Z,98612.75
2022-09-27T04:39:06.085Z,98618.78
2022-09-27T04:41:36.918Z,98622.94
2022-09-27T04:44:07.308Z,98616.19
2022-09-27T04:46:35.601Z,98615.69
2022-09-27T04:49:05.143Z,98626.88
2022-09-27T04:51:36.606Z,98619.53
2022-09-27T04:54:05.241Z,98624.50
2022-09-27T04:56:37.424Z,98625.25
2022-09-27T04:59:10.758Z,98625.34
2022-09-27T05:01:40.555Z,98619.22
2022-09-27T05:04:21.742Z,98623.78
2022-09-27T05:06:56.867Z,98629.91
2022-09-27T05:09:33.024Z,98633.22
2022-09-27T05:12:02.177Z,98639.66
2022-09-27T05:15:11.414Z,98643.44
2022-09-27T05:18:11.676Z,98647.06
2022-09-27T05:21:00.036Z,98656.09
2022-09-27T05:23:34.510Z,98650.28
2022-09-27T05:26:05.411Z,98658.06
2022-09-27T05:28:35.076Z,98664.09
2022-09-27T05:31:04.475Z,98663.69
2022-09-27T05:33:34.329Z,98667.34
2022-09-27T05:36:21.382Z,98674.44
2022-09-27T05:38:49.456Z,98681.97
2022-09-27T05:41:18.180Z,98681.66
2022-09-27T05:43:47.640Z,98692.91
2022-09-27T05:46:17.396Z,98688.94
2022-09-27T05:48:46.548Z,98691.75
2022-09-27T05:51:14.660Z,98699.94
2022-09-27T05:53:43.324Z,98713.59
2022-09-27T05:56:19.557Z,98717.00
2022-09-27T05:59:07.515Z,98717.97
2022-09-27T06:01:57.259Z,98718.06
2022-09-27T06:05:00.926Z,98719.50
2022-09-27T06:07:49.654Z,98726.03
2022-09-27T06:10:31.356Z,98724.09
2022-09-27T06:13:02.367Z,98721.06
2022-09-27T06:15:37.302Z,98717.44
2022-09-27T06:18:08.012Z,98713.16
2022-09-27T06:20:36.718Z,98715.16
2022-09-27T06:23:07.726Z,98721.69
2022-09-27T06:25:36.315Z,98722.41
2022-09-27T06:28:27.957Z,98719.69
2022-09-27T06:31:00.392Z,98731.97
2022-09-27T06:33:40.057Z,98734.38
2022-09-27T06:36:09.224Z,98737.19
2022-09-27T06:38:39.667Z,98740.41
2022-09-27T06:41:13.406Z,98732.38
2022-09-27T06:43:53.177Z,98747.44
2022-09-27T06:46:40.058Z,98745.06
2022-09-27T06:49:25.419Z,98750.28
2022-09-27T06:51:54.577Z,98758.81
2022-09-27T06:54:23.849Z,98765.47
2022-09-27T06:56:52.573Z,98762.53
2022-09-27T06:59:37.717Z,98759.94
2022-09-27T07:02:28.794Z,98769.31
2022-09-27T07:05:18.654Z,98770.63
2022-09-27T07:07:58.637Z,98775.94
2022-09-27T07:10:28.442Z,98793.66
2022-09-27T07:12:58.295Z,98790.50
2022-09-27T07:15:27.374Z,98791.03
2022-09-27T07:18:00.393Z,98800.06
2022-09-27T07:20:31.740Z,98797.66
2022-09-27T07:23:00.327Z,98802.34
2022-09-27T07:25:28.369Z,98803.38
2022-09-27T07:27:56.285Z,98810.16
2022-09-27T07:30:24.169Z,98808.09
2022-09-27T07:32:59.293Z,98807.31
2022-09-27T07:35:28.225Z,98813.56
2022-09-27T07:37:59.254Z,98824.44
2022-09-27T07:40:27.639Z,98822.47
2022-09-27T07:42:56.737Z,98821.00
2022-09-27T07:45:25.608Z,98823.59
2022-09-27T07:48:14.793Z,98823.72
2022-09-27T07:51:11.854Z,98827.50
2022-09-27T07:53:45.711Z,98830.94
2022-09-27T07:56:32.452Z,98829.03
2022-09-27T07:59:00.907Z,98835.69
2022-09-27T08:01:28.932Z,98844.28
2022-09-27T08:03:58.499Z,98839.69
2022-09-27T08:06:27.103Z,98841.75
2022-09-27T08:08:59.570Z,98836.72
2022-09-27T08:11:29.260Z,98843.28
2022-09-27T08:13:57.586Z,98842.78
2022-09-27T08:16:30.564Z,98835.13
2022-09-27T08:19:18.261Z,98845.03
2022-09-27T08:22:16.791Z,98844.72
2022-09-27T08:25:07.526Z,98842.16
2022-09-27T08:27:41.559Z,98846.06
2022-09-27T08:30:34.497Z,98851.84
2022-09-27T08:33:03.831Z,98847.59
2022-09-27T08:35:33.922Z,98844.41
2022-09-27T08:38:05.499Z,98844.91
2022-09-27T08:40:48.388Z,98850.53
2022-09-27T08:43:24.339Z,98851.78
2022-09-27T08:46:08.719Z,98854.25
2022-09-27T08:48:39.419Z,98860.56
2022-09-27T08:51:12.691Z,98869.38
2022-09-27T08:53:49.245Z,98867.50
2022-09-27T08:56:21.413Z,98859.44
2022-09-27T08:58:55.020Z,98864.34
2022-09-27T09:01:29.170Z,98873.41
2022-09-27T09:04:11.500Z,98872.41
2022-09-27T09:06:49.673Z,98869.97
2022-09-27T09:09:31.424Z,98876.09
2022-09-27T09:12:47.984Z,98873.69
2022-09-27T09:15:54.364Z,98887.00
2022-09-27T09:18:35.663Z,98886.56
2022-09-27T09:21:21.576Z,98877.19
2022-09-27T09:24:11.458Z,98879.91
2022-09-27T09:26:46.271Z,98874.38
2022-09-27T09:29:29.198Z,98869.91
2022-09-27T09:32:06.201Z,98865.75
2022-09-27T09:34:42.002Z,98861.59
2022-09-27T09:37:16.251Z,98864.88
2022-09-27T09:39:48.220Z,98865.97
2022-09-27T09:42:23.189Z,98856.13
2022-09-27T09:45:00.782Z,98860.31
2022-09-27T09:47:37.211Z,98865.66
2022-09-27T09:50:18.777Z,98858.06
2022-09-27T09:52:54.298Z,98860.25
2022-09-27T09:55:25.365Z,98858.66
2022-09-27T09:58:05.376Z,98864.22
2022-09-27T10:00:46.570Z,98858.28
2022-09-27T10:03:14.903Z,98861.25
2022-09-27T10:05:45.869Z,98858.66
2022-09-27T10:08:19.883Z,98869.44
2022-09-27T10:10:52.006Z,98864.09
2022-09-27T10:14:00.969Z,98863.50
2022-09-27T10:16:31.621Z,98873.72
2022-09-27T10:19:04.252Z,98863.63
2022-09-27T10:21:33.746Z,98865.63
2022-09-27T10:24:11.302Z,98855.69
2022-09-27T10:27:02.254Z,98848.88
2022-09-27T10:29:37.935Z,98854.34
2022-09-27T10:32:36.308Z,98857.53
2022-09-27T10:35:36.752Z,98838.94
2022-09-27T10:38:25.111Z,98854.25
2022-09-27T10:41:00.443Z,98842.97
2022-09-27T10:43:32.895Z,98838.28
2022-09-27T10:46:28.961Z,98843.81
2022-09-27T10:49:21.682Z,98846.44
2022-09-27T10:51:54.498Z,98838.97
2022-09-27T10:54:24.715Z,98845.25
2022-09-27T10:56:58.367Z,98832.69
2022-09-27T10:59:30.649Z,98833.03
2022-09-27T11:01:59.959Z,98832.56
2022-09-27T11:04:38.891Z,98829.94
2022-09-27T11:07:16.848Z,98822.34
2022-09-27T11:09:52.708Z,98833.25
2022-09-27T11:12:22.749Z,98841.31
2022-09-27T11:14:57.807Z,98832.47
2022-09-27T11:17:36.233Z,98822.38
2022-09-27T11:20:18.194Z,98824.28
2022-09-27T11:23:05.606Z,98828.22
2022-09-27T11:25:45.001Z,98834.28
2022-09-27T11:28:28.912Z,98837.56
2022-09-27T11:31:05.490Z,98831.75
2022-09-27T11:34:17.545Z,98833.53
2022-09-27T11:37:03.224Z,98823.03
2022-09-27T11:39:44.574Z,98827.56
2022-09-27T11:42:47.141Z,98824.91
2022-09-27T11:45:56.427Z,98824.47
2022-09-27T11:48:45.777Z,98817.00
2022-09-27T11:51:29.581Z,98812.53
2022-09-27T11:54:16.041Z,98804.06
2022-09-27T11:56:56.502Z,98797.44
2022-09-27T11:59:38.890Z,98792.03
2022-09-27T12:02:25.269Z,98787.16
2022-09-27T12:05:14.795Z,98778.38
2022-09-27T12:08:04.502Z,98775.16
2022-09-27T12:10:36.803Z,98779.25
2022-09-27T12:13:09.000Z,98771.19
2022-09-27T12:15:42.573Z,98770.03
2022-09-27T12:18:21.774Z,98761.28
2022-09-27T12:20:51.666Z,98760.38
2022-09-27T12:23:25.013Z,98772.59
2022-09-27T12:26:05.347Z,98764.63
2022-09-27T12:28:40.846Z,98767.31
2022-09-27T12:31:28.869Z,98778.06
2022-09-27T12:34:15.133Z,98776.88
2022-09-27T12:36:52.495Z,98767.47
2022-09-27T12:39:27.507Z,98769.09
2022-09-27T12:42:15.979Z,98769.25
2022-09-27T12:44:50.553Z,98775.31
2022-09-27T12:47:42.926Z,98780.75
2022-09-27T12:50:30.266Z,98780.44
2022-09-27T12:53:05.336Z,98777.88
2022-09-27T12:56:10.638Z,98770.66
2022-09-27T12:59:10.354Z,98775.81
2022-09-27T13:02:12.622Z,98783.09
2022-09-27T13:05:17.537Z,98779.53
2022-09-27T13:07:55.626Z,98784.28
2022-09-27T13:10:42.624Z,98782.97
2022-09-27T13:13:26.412Z,98780.34
2022-09-27T13:16:01.085Z,98787.34
2022-09-27T13:18:53.963Z,98786.41
2022-09-27T13:21:57.204Z,98784.03
2022-09-27T13:24:50.420Z,98778.78
2022-09-27T13:27:44.867Z,98770.50
2022-09-27T13:30:49.543Z,98763.59
2022-09-27T13:33:45.144Z,98760.56
2022-09-27T13:36:31.855Z,98757.69
2022-09-27T13:39:19.659Z,98764.69
2022-09-27T13:42:30.063Z,98759.81
2022-09-27T13:45:21.518Z,98763.47
2022-09-27T13:47:51.607Z,98757.41
2022-09-27T13:50:32.447Z,98758.97
2022-09-27T13:53:13.788Z,98766.00
2022-09-27T13:56:28.049Z,98761.50
2022-09-27T13:59:02.790Z,98763.88
2022-09-27T14:01:52.237Z,98764.78
2022-09-27T14:04:29.446Z,98758.78
2022-09-27T14:07:02.481Z,98755.19
2022-09-27T14:09:45.111Z,98760.63
2022-09-27T14:12:25.801Z,98757.81
2022-09-27T14:14:56.958Z,98750.22
2022-09-27T14:17:26.489Z,98754.72
2022-09-27T14:19:56.063Z,98752.56
2022-09-27T14:22:27.119Z,98747.16
2022-09-27T14:25:19.889Z,98741.44
2022-09-27T14:27:58.554Z,98742.84
2022-09-27T14:30:40.010Z,98745.91
2022-09-27T14:33:33.145Z,98742.63
2022-09-27T14:36:32.003Z,98752.38
2022-09-27T14:39:20.645Z,98753.88
2022-09-27T14:41:52.149Z,98752.00
2022-09-27T14:44:28.208Z,98754.63
2022-09-27T14:47:18.437Z,98755.97
2022-09-27T14:49:51.585Z,98750.56
2022-09-27T14:52:24.221Z,98754.56
2022-09-27T14:55:06.962Z,98758.16
2022-09-27T14:57:37.107Z,98758.34
2022-09-27T15:00:18.381Z,98768.47
2022-09-27T15:02:46.564Z,98769.72
2022-09-27T15:05:17.534Z,98772.41
2022-09-27T15:07:46.953Z,98768.31
2022-09-27T15:10:20.177Z,98781.03
2022-09-27T15:12:52.034Z,98775.16
2022-09-27T15:15:23.706Z,98770.63
2022-09-27T15:17:52.110Z,98776.91
2022-09-27T15:20:24.559Z,98776.44
2022-09-27T15:22:53.467Z,98783.75
2022-09-27T15:25:32.359Z,98787.09
2022-09-27T15:28:02.762Z,98794.50
2022-09-27T15:30:36.211Z,98797.00
2022-09-27T15:33:05.084Z,98800.53
2022-09-27T15:35:34.746Z,98801.38
2022-09-27T15:38:14.669Z,98802.53
2022-09-27T15:41:08.656Z,98799.91
2022-09-27T15:43:40.364Z,98795.94
2022-09-27T15:46:30.724Z,98792.69
2022-09-27T15:49:38.077Z,98791.63
2022-09-27T15:52:07.752Z,98788.44
2022-09-27T15:54:36.384Z,98791.66
2022-09-27T15:57:06.926Z,98792.13
2022-09-27T15:59:36.570Z,98793.97
2022-09-27T16:02:14.018Z,98794.06
2022-09-27T16:04:42.123Z,98796.53
2022-09-27T16:07:11.748Z,98798.56
2022-09-27T16:09:39.547Z,98801.31
2022-09-27T16:12:09.846Z,98804.75
2022-09-27T16:14:37.700Z,98809.88
2022-09-27T16:17:05.523Z,98805.41
2022-09-27T16:19:33.884Z,98813.41
2022-09-27T16:22:03.492Z,98813.63
2022-09-27T16:24:32.041Z,98820.00
2022-09-27T16:27:00.571Z,98817.81
2022-09-27T16:29:29.864Z,98818.38
2022-09-27T16:31:57.649Z,98829.38
2022-09-27T16:34:25.643Z,98823.69
2022-09-27T16:36:53.549Z,98821.44
2022-09-27T16:39:21.311Z,98822.63
2022-09-27T16:41:49.254Z,98822.81
2022-09-27T16:44:18.217Z,98823.59
2022-09-27T16:46:51.463Z,98832.75
2022-09-27T16:49:38.532Z,98837.59
2022-09-27T16:52:06.451Z,98838.63
2022-09-27T16:54:34.367Z,98837.91
2022-09-27T16:57:02.216Z,98827.97
2022-09-27T16:59:29.966Z,98838.78
2022-09-27T17:01:59.208Z,98834.56
2022-09-27T17:04:28.434Z,98842.59
2022-09-27T17:07:14.719Z,98847.50
2022-09-27T17:09:43.451Z,98848.31
2022-09-27T17:12:12.022Z,98847.25
2022-09-27T17:14:40.475Z,98850.22
2022-09-27T17:17:09.847Z,98834.91
2022-09-27T17:19:39.198Z,98844.41
2022-09-27T17:22:08.509Z,98850.34
2022-09-27T17:24:36.695Z,98854.00
2022-09-27T17:27:04.457Z,98845.16
2022-09-27T17:29:32.536Z,98840.28
2022-09-27T17:32:00.567Z,98835.88
2022-09-27T17:34:29.692Z,98839.13
2022-09-27T17:36:59.330Z,98841.41
2022-09-27T17:39:27.455Z,98847.19
2022-09-27T17:41:55.835Z,98846.38
2022-09-27T17:44:26.763Z,98842.59
2022-09-27T17:47:16.309Z,98838.88
2022-09-27T17:50:03.469Z,98842.91
2022-09-27T17:52:31.255Z,98844.44
2022-09-27T17:54:59.104Z,98840.94
2022-09-27T17:57:27.117Z,98846.88
2022-09-27T17:59:55.142Z,98845.19
2022-09-27T18:02:23.466Z,98848.63
2022-09-27T18:04:52.973Z,98842.13
2022-09-27T18:07:21.146Z,98842.13
2022-09-27T18:09:50.149Z,98845.59
2022-09-27T18:12:18.263Z,98845.50
2022-09-27T18:14:46.146Z,98849.22
2022-09-27T18:17:14.089Z,98846.34
2022-09-27T18:19:41.944Z,98858.56
2022-09-27T18:22:11.132Z,98856.28
2022-09-27T18:24:38.968Z,98860.09
2022-09-27T18:27:06.857Z,98868.94
2022-09-27T18:29:34.553Z,98875.44
2022-09-27T18:32:03.027Z,98883.84
2022-09-27T18:34:30.789Z,98881.94
2022-09-27T18:36:58.577Z,98882.63
2022-09-27T18:39:27.775Z,98884.28
2022-09-27T18:41:56.503Z,98878.63
2022-09-27T18:44:24.343Z,98887.69
2022-09-27T18:46:52.559Z,98885.69
2022-09-27T18:49:24.929Z,98890.97
2022-09-27T18:51:54.949Z,98885.78
2022-09-27T18:54:23.841Z,98886.63
2022-09-27T18:56:53.186Z,98885.41
2022-09-27T18:59:23.450Z,98891.88
2022-09-27T19:01:52.110Z,98887.41
2022-09-27T19:04:23.979Z,98883.69
2022-09-27T19:06:52.721Z,98887.88
2022-09-27T19:09:20.680Z,98890.66
2022-09-27T19:11:48.439Z,98884.63
2022-09-27T19:14:20.048Z,98883.34
2022-09-27T19:16:48.294Z,98888.94
2022-09-27T19:19:16.840Z,98884.03
2022-09-27T19:21:57.267Z,98878.38
2022-09-27T19:24:25.429Z,98874.88
2022-09-27T19:26:53.892Z,98874.22
2022-09-27T19:29:23.250Z,98874.69
2022-09-27T19:31:51.113Z,98878.22
2022-09-27T19:34:19.073Z,98868.75
2022-09-27T19:36:47.073Z,98868.75
2022-09-27T19:39:14.884Z,98872.09
2022-09-27T19:41:42.763Z,98879.97
2022-09-27T19:44:10.701Z,98878.56
2022-09-27T19:46:39.978Z,98882.84
2022-09-27T19:49:07.817Z,98880.50
2022-09-27T19:51:35.590Z,98869.84
2022-09-27T19:54:04.118Z,98877.38
2022-09-27T19:56:32.342Z,98866.91
2022-09-27T19:59:03.733Z,98861.97
2022-09-27T20:01:34.115Z,98861.34
2022-09-27T20:04:03.477Z,98852.44
2022-09-27T20:06:32.694Z,98853.91
2022-09-27T20:09:02.876Z,98853.25
2022-09-27T20:11:31.269Z,98858.38
2022-09-27T20:13:59.880Z,98853.06
2022-09-27T20:16:41.195Z,98847.88
2022-09-27T20:19:11.507Z,98851.13
2022-09-27T20:21:39.314Z,98846.97
2022-09-27T20:24:07.400Z,98843.16
2022-09-27T20:26:36.476Z,98841.84
2022-09-27T20:29:05.820Z,98841.00
2022-09-27T20:31:37.027Z,98832.19
2022-09-27T20:34:06.890Z,98833.88
2022-09-27T20:36:38.700Z,98820.59
2022-09-27T20:39:09.333Z,98821.72
2022-09-27T20:41:39.198Z,98821.72
2022-09-27T20:44:08.905Z,98814.84
2022-09-27T20:46:38.083Z,98807.84
2022-09-27T20:49:08.346Z,98799.97
2022-09-27T20:51:39.833Z,98799.19
2022-09-27T20:54:10.087Z,98806.22
2022-09-27T20:56:40.574Z,98809.72
2022-09-27T20:59:14.731Z,98803.06
2022-09-27T21:01:44.575Z,98794.41
2022-09-27T21:04:14.594Z,98797.63
2022-09-27T21:06:44.701Z,98793.94
2022-09-27T21:09:18.227Z,98784.59
2022-09-27T21:11:46.858Z,98787.47
2022-09-27T21:14:15.773Z,98771.69
2022-09-27T21:16:43.886Z,98762.66
2022-09-27T21:19:11.800Z,98756.91
2022-09-27T21:21:39.603Z,98754.44
2022-09-27T21:24:08.944Z,98744.78
2022-09-27T21:26:36.933Z,98741.75
2022-09-27T21:29:07.518Z,98742.38
2022-09-27T21:31:35.841Z,98739.69
2022-09-27T21:34:05.923Z,98747.84
2022-09-27T21:36:35.665Z,98747.78
2022-09-27T21:39:04.450Z,98747.84
2022-09-27T21:41:33.930Z,98744.06
2022-09-27T21:44:04.575Z,98743.63
2022-09-27T21:46:32.793Z,98745.69
2022-09-27T21:49:02.772Z,98743.31
2022-09-27T21:51:32.299Z,98743.75
2022-09-27T21:54:02.222Z,98746.72
2022-09-27T21:56:32.090Z,98743.09
2022-09-27T21:59:01.384Z,98742.38
2022-09-27T22:01:31.427Z,98742.91
2022-09-27T22:04:00.265Z,98737.09
2022-09-27T22:06:29.981Z,98735.22
2022-09-27T22:08:59.100Z,98734.31
2022-09-27T22:11:28.650Z,98726.22
2022-09-27T22:13:56.784Z,98723.72
2022-09-27T22:16:27.440Z,98718.53
2022-09-27T22:18:57.282Z,98712.59
2022-09-27T22:21:27.358Z,98700.44
2022-09-27T22:23:56.237Z,98706.28
2022-09-27T22:26:25.514Z,98701.09
2022-09-27T22:28:53.842Z,98693.81
2022-09-27T22:31:23.142Z,98677.31
2022-09-27T22:33:54.386Z,98670.69
2022-09-27T22:36:23.416Z,98664.66
2022-09-27T22:38:52.210Z,98669.03
2022-09-27T22:41:20.251Z,98664.66
2022-09-27T22:43:48.434Z,98659.16
2022-09-27T22:46:16.592Z,98653.47
2022-09-27T22:48:44.465Z,98649.50
2022-09-27T22:51:14.322Z,98656.66
2022-09-27T22:53:42.254Z,98642.78
2022-09-27T22:56:15.047Z,98637.56
2022-09-27T22:58:44.019Z,98636.94
2022-09-27T23:01:16.063Z,98633.91
2022-09-27T23:03:44.318Z,98631.22
2022-09-27T23:06:15.456Z,98629.69
2022-09-27T23:08:44.108Z,98615.75
2022-09-27T23:11:14.055Z,98623.22
2022-09-27T23:13:43.750Z,98623.03
2022-09-27T23:16:13.697Z,98622.59
2022-09-27T23:18:42.171Z,98616.88
2022-09-27T23:21:16.001Z,98602.75
2022-09-27T23:23:45.931Z,98596.31
2022-09-27T23:26:15.760Z,98581.97
2022-09-27T23:28:44.401Z,98569.31
2022-09-27T23:31:14.355Z,98576.88
2022-09-27T23:33:44.877Z,98568.72
2022-09-27T23:36:15.988Z,98546.47
2022-09-27T23:38:45.518Z,98546.34
2022-09-27T23:41:13.960Z,98530.75
2022-09-27T23:43:42.126Z,98524.94
2022-09-27T23:46:11.266Z,98512.59
2022-09-27T23:48:39.918Z,98500.88
2022-09-27T23:51:09.995Z,98494.03
2022-09-27T23:53:40.051Z,98477.63
2022-09-27T23:56:09.914Z,98480.34
2022-09-27T23:58:39.702Z,98469.75
